Map

Track Data

SID SEASON NUMBER BASIN SUBBASIN NAME ISO_TIME NATURE LAT LON WMO_WIND WMO_PRES WMO_AGENCY TRACK_TYPE DIST2LAND LANDFALL IFLAG USA_AGENCY USA_ATCF_ID USA_LAT USA_LON USA_RECORD USA_STATUS USA_WIND USA_PRES USA_SSHS USA_R34_NE USA_R34_SE USA_R34_SW USA_R34_NW USA_R50_NE USA_R50_SE USA_R50_SW USA_R50_NW USA_R64_NE USA_R64_SE USA_R64_SW USA_R64_NW USA_POCI USA_ROCI USA_RMW USA_EYE TOKYO_LAT TOKYO_LON TOKYO_GRADE TOKYO_WIND TOKYO_PRES TOKYO_R50_DIR TOKYO_R50_LONG TOKYO_R50_SHORT TOKYO_R30_DIR TOKYO_R30_LONG TOKYO_R30_SHORT TOKYO_LAND CMA_LAT CMA_LON CMA_CAT CMA_WIND CMA_PRES HKO_LAT HKO_LON HKO_CAT HKO_WIND HKO_PRES NEWDELHI_LAT NEWDELHI_LON NEWDELHI_GRADE NEWDELHI_WIND NEWDELHI_PRES NEWDELHI_CI NEWDELHI_DP NEWDELHI_POCI REUNION_LAT REUNION_LON REUNION_TYPE REUNION_WIND REUNION_PRES REUNION_TNUM REUNION_CI REUNION_RMW REUNION_R34_NE REUNION_R34_SE REUNION_R34_SW REUNION_R34_NW REUNION_R50_NE REUNION_R50_SE REUNION_R50_SW REUNION_R50_NW REUNION_R64_NE REUNION_R64_SE REUNION_R64_SW REUNION_R64_NW BOM_LAT BOM_LON BOM_TYPE BOM_WIND BOM_PRES BOM_TNUM BOM_CI BOM_RMW BOM_R34_NE BOM_R34_SE BOM_R34_SW BOM_R34_NW BOM_R50_NE BOM_R50_SE BOM_R50_SW BOM_R50_NW BOM_R64_NE BOM_R64_SE BOM_R64_SW BOM_R64_NW BOM_ROCI BOM_POCI BOM_EYE BOM_POS_METHOD BOM_PRES_METHOD NADI_LAT NADI_LON NADI_CAT NADI_WIND NADI_PRES WELLINGTON_LAT WELLINGTON_LON WELLINGTON_WIND WELLINGTON_PRES DS824_LAT DS824_LON DS824_STAGE DS824_WIND DS824_PRES TD9636_LAT TD9636_LON TD9636_STAGE TD9636_WIND TD9636_PRES TD9635_LAT TD9635_LON TD9635_WIND TD9635_PRES TD9635_ROCI NEUMANN_LAT NEUMANN_LON NEUMANN_CLASS NEUMANN_WIND NEUMANN_PRES MLC_LAT MLC_LON MLC_CLASS MLC_WIND MLC_PRES USA_GUST BOM_GUST BOM_GUST_PER REUNION_GUST REUNION_GUST_PER USA_SEAHGT USA_SEARAD_NE USA_SEARAD_SE USA_SEARAD_SW USA_SEARAD_NW STORM_SPEED STORM_DIR
1936171N22270 1936 16 NA GM NOT_NAMED 1936-06-19 06:00:00 TS 22.3000 -90.4000 30 hurdat_atl main 133 133 O_____________ hurdat_atl AL021936 22.3000 -90.4000 TD 30 -1 5 315
1936171N22270 1936 16 NA GM NOT_NAMED 1936-06-19 09:00:00 TS 22.4926 -90.6099 main 159 159 P_____________ AL021936 22.4926 -90.6099 TD 32 -1 5 317
1936171N22270 1936 16 NA GM NOT_NAMED 1936-06-19 12:00:00 TS 22.7000 -90.8000 35 hurdat_atl main 186 186 O_____________ hurdat_atl AL021936 22.7000 -90.8000 TS 35 0 5 324
1936171N22270 1936 16 NA GM NOT_NAMED 1936-06-19 15:00:00 TS 22.9350 -90.9576 main 213 213 P_____________ AL021936 22.9350 -90.9576 TS 37 0 6 331
1936171N22270 1936 16 NA GM NOT_NAMED 1936-06-19 18:00:00 TS 23.2000 -91.1000 40 hurdat_atl main 248 248 O_____________ hurdat_atl AL021936 23.2000 -91.1000 TS 40 0 6 336
1936171N22270 1936 16 NA GM NOT_NAMED 1936-06-19 21:00:00 TS 23.5074 -91.2351 main 283 283 P_____________ AL021936 23.5074 -91.2351 TS 42 0 7 335
1936171N22270 1936 16 NA GM NOT_NAMED 1936-06-20 00:00:00 TS 23.8000 -91.4000 45 1000 hurdat_atl main 322 322 O_____________ hurdat_atl AL021936 23.8000 -91.4000 TS 45 1000 0 6 326
1936171N22270 1936 16 NA GM NOT_NAMED 1936-06-20 03:00:00 TS 24.0149 -91.6127 main 350 350 P_____________ AL021936 24.0149 -91.6127 TS 45 0 6 311
1936171N22270 1936 16 NA GM NOT_NAMED 1936-06-20 06:00:00 TS 24.2000 -91.9000 45 hurdat_atl main 383 383 O_____________ hurdat_atl AL021936 24.2000 -91.9000 TS 45 0 7 304
1936171N22270 1936 16 NA GM NOT_NAMED 1936-06-20 09:00:00 TS 24.3998 -92.2477 main 417 417 P_____________ AL021936 24.3998 -92.2477 TS 45 0 8 299
1936171N22270 1936 16 NA GM NOT_NAMED 1936-06-20 12:00:00 TS 24.6000 -92.7000 45 hurdat_atl main 462 402 O_____________ hurdat_atl AL021936 24.6000 -92.7000 TS 45 0 10 295
1936171N22270 1936 16 NA GM NOT_NAMED 1936-06-20 15:00:00 TS 24.8452 -93.2844 main 402 338 P_____________ AL021936 24.8452 -93.2844 TS 45 0 12 290
1936171N22270 1936 16 NA GM NOT_NAMED 1936-06-20 18:00:00 TS 25.0000 -93.9000 45 hurdat_atl main 338 289 O_____________ hurdat_atl AL021936 25.0000 -93.9000 TS 45 0 10 276
1936171N22270 1936 16 NA GM NOT_NAMED 1936-06-20 21:00:00 TS 24.9597 -94.4153 main 289 247 P_____________ AL021936 24.9597 -94.4153 TS 45 0 9 258
1936171N22270 1936 16 NA GM NOT_NAMED 1936-06-21 00:00:00 TS 24.8000 -94.9000 45 hurdat_atl main 247 211 O_____________ hurdat_atl AL021936 24.8000 -94.9000 TS 45 0 10 248
1936171N22270 1936 16 NA GM NOT_NAMED 1936-06-21 03:00:00 TS 24.6073 -95.4001 main 211 174 P_____________ AL021936 24.6073 -95.4001 TS 45 0 10 246
1936171N22270 1936 16 NA GM NOT_NAMED 1936-06-21 06:00:00 TS 24.4000 -95.9000 45 hurdat_atl main 174 133 O_____________ hurdat_atl AL021936 24.4000 -95.9000 TS 45 0 10 248
1936171N22270 1936 16 NA GM NOT_NAMED 1936-06-21 09:00:00 TS 24.2425 -96.4148 main 135 91 P_____________ AL021936 24.2425 -96.4148 TS 45 0 10 252
1936171N22270 1936 16 NA GM NOT_NAMED 1936-06-21 12:00:00 TS 24.1000 -96.9000 45 hurdat_atl main 91 50 O_____________ hurdat_atl AL021936 24.1000 -96.9000 TS 45 0 9 250
1936171N22270 1936 16 NA GM NOT_NAMED 1936-06-21 15:00:00 TS 23.9424 -97.3300 main 50 10 P_____________ AL021936 23.9424 -97.3300 TS 45 0 8 248
1936171N22270 1936 16 NA GM NOT_NAMED 1936-06-21 18:00:00 TS 23.8000 -97.7000 45 hurdat_atl main 10 0 O_____________ hurdat_atl AL021936 23.8000 -97.7000 TS 45 0 7 248
1936171N22270 1936 16 NA NA NOT_NAMED 1936-06-21 21:00:00 TS 23.6923 -98.0149 main 0 0 P_____________ AL021936 23.6923 -98.0149 TS 40 0 6 250
1936171N22270 1936 16 NA NA NOT_NAMED 1936-06-22 00:00:00 TS 23.6000 -98.3000 35 hurdat_atl main 0 0 O_____________ hurdat_atl AL021936 23.6000 -98.3000 TS 35 0 6 250
1936171N22270 1936 16 NA NA NOT_NAMED 1936-06-22 03:00:00 TS 23.5027 -98.5952 main 0 0 P_____________ AL021936 23.5027 -98.5952 TS 30 -1 6 250
1936171N22270 1936 16 NA NA NOT_NAMED 1936-06-22 06:00:00 TS 23.4000 -98.9000 25 hurdat_atl main 0 O_____________ hurdat_atl AL021936 23.4000 -98.9000 TD 25 -1 6 250

About IBTrACS Database

This database is a web-friendly format of International Best Track Archive for Climate Stewardship (IBTrACS), a global best track data archive curated by NOAA dating back to 1842.

Updated: 2021-12-03